sensor_id;sensor_type;location;lat;lon;timestamp;P1;durP1;ratioP1;P2;durP2;ratioP2
25962;SDS011;13760;52.588;13.406;2023-05-07T00:01:17;24.13;;;17.35;;
25962;SDS011;13760;52.588;13.406;2023-05-07T00:03:42;24.30;;;17.67;;
25962;SDS011;13760;52.588;13.406;2023-05-07T00:06:08;20.67;;;16.60;;
25962;SDS011;13760;52.588;13.406;2023-05-07T00:08:33;21.27;;;17.35;;
25962;SDS011;13760;52.588;13.406;2023-05-07T00:10:59;21.25;;;16.85;;
25962;SDS011;13760;52.588;13.406;2023-05-07T00:13:24;23.83;;;17.27;;
25962;SDS011;13760;52.588;13.406;2023-05-07T00:15:50;25.80;;;17.40;;
25962;SDS011;13760;52.588;13.406;2023-05-07T00:18:15;22.50;;;16.85;;
25962;SDS011;13760;52.588;13.406;2023-05-07T00:20:41;23.85;;;17.98;;
25962;SDS011;13760;52.588;13.406;2023-05-07T00:23:06;29.08;;;16.65;;
25962;SDS011;13760;52.588;13.406;2023-05-07T00:25:32;22.65;;;17.73;;
25962;SDS011;13760;52.588;13.406;2023-05-07T00:27:57;24.45;;;17.63;;
25962;SDS011;13760;52.588;13.406;2023-05-07T00:30:28;22.75;;;16.65;;
25962;SDS011;13760;52.588;13.406;2023-05-07T00:32:54;22.27;;;17.00;;
25962;SDS011;13760;52.588;13.406;2023-05-07T00:35:20;22.88;;;17.10;;
25962;SDS011;13760;52.588;13.406;2023-05-07T00:37:45;22.13;;;16.85;;
25962;SDS011;13760;52.588;13.406;2023-05-07T00:40:11;23.23;;;16.55;;
25962;SDS011;13760;52.588;13.406;2023-05-07T00:42:36;23.10;;;16.98;;
25962;SDS011;13760;52.588;13.406;2023-05-07T00:45:03;20.65;;;16.13;;
25962;SDS011;13760;52.588;13.406;2023-05-07T00:47:28;21.30;;;16.10;;
25962;SDS011;13760;52.588;13.406;2023-05-07T00:49:54;24.13;;;17.20;;
25962;SDS011;13760;52.588;13.406;2023-05-07T00:52:22;21.50;;;15.93;;
25962;SDS011;13760;52.588;13.406;2023-05-07T00:54:50;19.90;;;16.88;;
25962;SDS011;13760;52.588;13.406;2023-05-07T00:57:16;19.17;;;15.18;;
25962;SDS011;13760;52.588;13.406;2023-05-07T00:59:42;20.63;;;15.73;;
25962;SDS011;13760;52.588;13.406;2023-05-07T01:02:08;22.00;;;16.20;;
25962;SDS011;13760;52.588;13.406;2023-05-07T01:04:33;21.30;;;16.15;;
25962;SDS011;13760;52.588;13.406;2023-05-07T01:06:59;21.88;;;16.45;;
25962;SDS011;13760;52.588;13.406;2023-05-07T01:09:26;24.42;;;16.00;;
25962;SDS011;13760;52.588;13.406;2023-05-07T01:11:53;20.77;;;16.60;;
25962;SDS011;13760;52.588;13.406;2023-05-07T01:14:22;20.55;;;16.98;;
25962;SDS011;13760;52.588;13.406;2023-05-07T01:16:48;24.15;;;16.08;;
25962;SDS011;13760;52.588;13.406;2023-05-07T01:19:16;21.27;;;16.42;;
25962;SDS011;13760;52.588;13.406;2023-05-07T01:21:44;21.98;;;16.95;;
25962;SDS011;13760;52.588;13.406;2023-05-07T01:24:12;19.73;;;16.08;;
25962;SDS011;13760;52.588;13.406;2023-05-07T01:26:39;18.60;;;15.38;;
25962;SDS011;13760;52.588;13.406;2023-05-07T01:29:05;21.08;;;16.27;;
25962;SDS011;13760;52.588;13.406;2023-05-07T01:31:30;23.63;;;16.25;;
25962;SDS011;13760;52.588;13.406;2023-05-07T01:33:58;20.20;;;16.35;;
25962;SDS011;13760;52.588;13.406;2023-05-07T01:36:25;22.83;;;15.65;;
25962;SDS011;13760;52.588;13.406;2023-05-07T01:38:53;20.70;;;16.17;;
25962;SDS011;13760;52.588;13.406;2023-05-07T01:41:19;20.65;;;16.55;;
25962;SDS011;13760;52.588;13.406;2023-05-07T01:43:46;20.10;;;15.25;;
25962;SDS011;13760;52.588;13.406;2023-05-07T01:46:12;18.17;;;14.77;;
25962;SDS011;13760;52.588;13.406;2023-05-07T01:48:38;18.67;;;14.30;;
25962;SDS011;13760;52.588;13.406;2023-05-07T01:51:04;19.20;;;14.88;;
25962;SDS011;13760;52.588;13.406;2023-05-07T01:53:35;18.45;;;14.88;;
25962;SDS011;13760;52.588;13.406;2023-05-07T01:56:02;19.20;;;15.35;;
25962;SDS011;13760;52.588;13.406;2023-05-07T01:58:27;22.00;;;15.18;;
25962;SDS011;13760;52.588;13.406;2023-05-07T02:00:53;19.08;;;15.68;;
25962;SDS011;13760;52.588;13.406;2023-05-07T02:03:18;19.75;;;15.80;;
25962;SDS011;13760;52.588;13.406;2023-05-07T02:05:44;20.20;;;15.30;;
25962;SDS011;13760;52.588;13.406;2023-05-07T02:08:09;22.42;;;14.60;;
25962;SDS011;13760;52.588;13.406;2023-05-07T02:10:35;20.70;;;15.98;;
25962;SDS011;13760;52.588;13.406;2023-05-07T02:13:01;18.27;;;14.88;;
25962;SDS011;13760;52.588;13.406;2023-05-07T02:15:26;19.58;;;15.10;;
25962;SDS011;13760;52.588;13.406;2023-05-07T02:18:05;18.67;;;14.77;;
25962;SDS011;13760;52.588;13.406;2023-05-07T02:20:34;20.60;;;13.98;;
25962;SDS011;13760;52.588;13.406;2023-05-07T02:23:00;18.05;;;14.25;;
25962;SDS011;13760;52.588;13.406;2023-05-07T02:25:25;17.35;;;13.93;;
25962;SDS011;13760;52.588;13.406;2023-05-07T02:27:51;19.15;;;14.00;;
25962;SDS011;13760;52.588;13.406;2023-05-07T02:30:16;18.77;;;14.30;;
25962;SDS011;13760;52.588;13.406;2023-05-07T02:32:42;17.90;;;14.50;;
25962;SDS011;13760;52.588;13.406;2023-05-07T02:35:08;23.02;;;14.85;;
25962;SDS011;13760;52.588;13.406;2023-05-07T02:37:33;20.35;;;14.00;;
25962;SDS011;13760;52.588;13.406;2023-05-07T02:39:59;20.45;;;13.43;;
25962;SDS011;13760;52.588;13.406;2023-05-07T02:42:24;16.13;;;13.05;;
25962;SDS011;13760;52.588;13.406;2023-05-07T02:44:50;16.63;;;13.50;;
25962;SDS011;13760;52.588;13.406;2023-05-07T02:47:15;17.40;;;13.05;;
25962;SDS011;13760;52.588;13.406;2023-05-07T02:49:41;15.55;;;11.95;;
25962;SDS011;13760;52.588;13.406;2023-05-07T02:52:06;17.63;;;12.85;;
25962;SDS011;13760;52.588;13.406;2023-05-07T02:54:32;16.83;;;12.68;;
25962;SDS011;13760;52.588;13.406;2023-05-07T02:56:58;16.02;;;12.00;;
25962;SDS011;13760;52.588;13.406;2023-05-07T02:59:23;15.27;;;11.80;;
25962;SDS011;13760;52.588;13.406;2023-05-07T03:01:51;13.75;;;12.15;;
25962;SDS011;13760;52.588;13.406;2023-05-07T03:04:16;15.35;;;11.70;;
25962;SDS011;13760;52.588;13.406;2023-05-07T03:06:42;17.65;;;11.38;;
25962;SDS011;13760;52.588;13.406;2023-05-07T03:09:07;14.38;;;12.02;;
25962;SDS011;13760;52.588;13.406;2023-05-07T03:11:33;14.13;;;11.60;;
25962;SDS011;13760;52.588;13.406;2023-05-07T03:13:59;14.73;;;12.00;;
25962;SDS011;13760;52.588;13.406;2023-05-07T03:16:24;14.75;;;11.60;;
25962;SDS011;13760;52.588;13.406;2023-05-07T03:18:50;15.60;;;11.85;;
25962;SDS011;13760;52.588;13.406;2023-05-07T03:21:16;15.30;;;12.05;;
25962;SDS011;13760;52.588;13.406;2023-05-07T03:23:41;14.85;;;11.77;;
25962;SDS011;13760;52.588;13.406;2023-05-07T03:26:07;15.18;;;12.32;;
25962;SDS011;13760;52.588;13.406;2023-05-07T03:28:32;17.30;;;12.63;;
25962;SDS011;13760;52.588;13.406;2023-05-07T03:30:58;16.42;;;11.90;;
25962;SDS011;13760;52.588;13.406;2023-05-07T03:33:23;15.50;;;12.45;;
25962;SDS011;13760;52.588;13.406;2023-05-07T03:35:49;15.05;;;11.52;;
25962;SDS011;13760;52.588;13.406;2023-05-07T03:38:14;15.23;;;12.13;;
25962;SDS011;13760;52.588;13.406;2023-05-07T03:40:40;16.02;;;12.20;;
25962;SDS011;13760;52.588;13.406;2023-05-07T03:43:05;15.35;;;12.07;;
25962;SDS011;13760;52.588;13.406;2023-05-07T03:45:31;16.50;;;12.07;;
25962;SDS011;13760;52.588;13.406;2023-05-07T03:47:57;14.40;;;10.93;;
25962;SDS011;13760;52.588;13.406;2023-05-07T03:50:22;14.65;;;11.32;;
25962;SDS011;13760;52.588;13.406;2023-05-07T03:52:47;13.85;;;10.70;;
25962;SDS011;13760;52.588;13.406;2023-05-07T03:55:13;16.25;;;11.00;;
25962;SDS011;13760;52.588;13.406;2023-05-07T03:57:38;14.27;;;11.20;;
25962;SDS011;13760;52.588;13.406;2023-05-07T04:00:04;15.60;;;11.40;;
25962;SDS011;13760;52.588;13.406;2023-05-07T04:02:31;14.60;;;10.40;;
25962;SDS011;13760;52.588;13.406;2023-05-07T04:04:58;12.50;;;9.90;;
25962;SDS011;13760;52.588;13.406;2023-05-07T04:07:23;15.77;;;11.30;;
25962;SDS011;13760;52.588;13.406;2023-05-07T04:09:48;14.13;;;10.43;;
25962;SDS011;13760;52.588;13.406;2023-05-07T04:12:14;14.25;;;10.65;;
25962;SDS011;13760;52.588;13.406;2023-05-07T04:14:40;15.55;;;11.13;;
25962;SDS011;13760;52.588;13.406;2023-05-07T04:17:05;12.98;;;10.35;;
25962;SDS011;13760;52.588;13.406;2023-05-07T04:19:32;13.68;;;11.52;;
25962;SDS011;13760;52.588;13.406;2023-05-07T04:21:58;14.38;;;10.93;;
25962;SDS011;13760;52.588;13.406;2023-05-07T04:24:24;15.82;;;11.27;;
25962;SDS011;13760;52.588;13.406;2023-05-07T04:26:49;15.20;;;11.05;;
25962;SDS011;13760;52.588;13.406;2023-05-07T04:29:16;13.88;;;11.07;;
25962;SDS011;13760;52.588;13.406;2023-05-07T04:31:41;14.07;;;11.27;;
25962;SDS011;13760;52.588;13.406;2023-05-07T04:34:09;13.60;;;10.00;;
25962;SDS011;13760;52.588;13.406;2023-05-07T04:36:38;15.80;;;10.93;;
25962;SDS011;13760;52.588;13.406;2023-05-07T04:39:06;13.82;;;10.70;;
25962;SDS011;13760;52.588;13.406;2023-05-07T04:41:31;12.60;;;10.00;;
25962;SDS011;13760;52.588;13.406;2023-05-07T04:43:57;14.63;;;10.80;;
25962;SDS011;13760;52.588;13.406;2023-05-07T04:46:23;13.20;;;10.57;;
25962;SDS011;13760;52.588;13.406;2023-05-07T04:48:49;14.48;;;10.10;;
25962;SDS011;13760;52.588;13.406;2023-05-07T04:51:15;15.02;;;10.48;;
25962;SDS011;13760;52.588;13.406;2023-05-07T04:53:40;13.23;;;9.55;;
25962;SDS011;13760;52.588;13.406;2023-05-07T04:56:07;12.50;;;10.00;;
25962;SDS011;13760;52.588;13.406;2023-05-07T04:58:33;11.55;;;9.77;;
25962;SDS011;13760;52.588;13.406;2023-05-07T05:00:59;14.02;;;10.65;;
25962;SDS011;13760;52.588;13.406;2023-05-07T05:03:25;14.07;;;10.45;;
25962;SDS011;13760;52.588;13.406;2023-05-07T05:05:51;16.27;;;9.98;;
25962;SDS011;13760;52.588;13.406;2023-05-07T05:08:17;14.18;;;9.85;;
25962;SDS011;13760;52.588;13.406;2023-05-07T05:10:43;14.88;;;10.35;;
25962;SDS011;13760;52.588;13.406;2023-05-07T05:13:08;14.02;;;10.65;;
25962;SDS011;13760;52.588;13.406;2023-05-07T05:15:35;13.38;;;10.07;;
25962;SDS011;13760;52.588;13.406;2023-05-07T05:18:00;14.02;;;10.10;;
25962;SDS011;13760;52.588;13.406;2023-05-07T05:20:26;12.40;;;9.63;;
25962;SDS011;13760;52.588;13.406;2023-05-07T05:22:51;13.00;;;9.88;;
25962;SDS011;13760;52.588;13.406;2023-05-07T05:25:17;11.57;;;8.77;;
25962;SDS011;13760;52.588;13.406;2023-05-07T05:27:42;12.50;;;9.45;;
25962;SDS011;13760;52.588;13.406;2023-05-07T05:30:08;13.50;;;9.57;;
25962;SDS011;13760;52.588;13.406;2023-05-07T05:32:34;12.32;;;9.23;;
25962;SDS011;13760;52.588;13.406;2023-05-07T05:34:59;11.65;;;9.38;;
25962;SDS011;13760;52.588;13.406;2023-05-07T05:37:25;13.27;;;9.40;;
25962;SDS011;13760;52.588;13.406;2023-05-07T05:39:51;11.77;;;9.20;;
25962;SDS011;13760;52.588;13.406;2023-05-07T05:42:17;12.43;;;9.07;;
25962;SDS011;13760;52.588;13.406;2023-05-07T05:44:43;12.05;;;8.77;;
25962;SDS011;13760;52.588;13.406;2023-05-07T05:47:08;12.65;;;8.68;;
25962;SDS011;13760;52.588;13.406;2023-05-07T05:49:34;12.73;;;9.38;;
25962;SDS011;13760;52.588;13.406;2023-05-07T05:52:00;14.23;;;9.50;;
25962;SDS011;13760;52.588;13.406;2023-05-07T05:54:25;12.60;;;10.20;;
25962;SDS011;13760;52.588;13.406;2023-05-07T05:56:51;11.30;;;9.30;;
25962;SDS011;13760;52.588;13.406;2023-05-07T05:59:16;14.52;;;9.73;;
25962;SDS011;13760;52.588;13.406;2023-05-07T06:01:42;13.80;;;10.00;;
25962;SDS011;13760;52.588;13.406;2023-05-07T06:04:07;11.25;;;8.85;;
25962;SDS011;13760;52.588;13.406;2023-05-07T06:06:33;14.80;;;9.32;;
25962;SDS011;13760;52.588;13.406;2023-05-07T06:08:58;14.98;;;10.27;;
25962;SDS011;13760;52.588;13.406;2023-05-07T06:11:24;13.00;;;9.60;;
25962;SDS011;13760;52.588;13.406;2023-05-07T06:13:50;13.75;;;9.75;;
25962;SDS011;13760;52.588;13.406;2023-05-07T06:16:15;12.93;;;9.48;;
25962;SDS011;13760;52.588;13.406;2023-05-07T06:18:41;15.52;;;9.05;;
25962;SDS011;13760;52.588;13.406;2023-05-07T06:21:07;12.95;;;9.77;;
25962;SDS011;13760;52.588;13.406;2023-05-07T06:23:32;11.30;;;8.55;;
25962;SDS011;13760;52.588;13.406;2023-05-07T06:25:57;12.48;;;9.00;;
25962;SDS011;13760;52.588;13.406;2023-05-07T06:28:23;11.52;;;9.23;;
25962;SDS011;13760;52.588;13.406;2023-05-07T06:30:49;11.43;;;8.15;;
25962;SDS011;13760;52.588;13.406;2023-05-07T06:33:15;10.32;;;8.65;;
25962;SDS011;13760;52.588;13.406;2023-05-07T06:35:42;13.80;;;8.85;;
25962;SDS011;13760;52.588;13.406;2023-05-07T06:38:07;13.90;;;9.55;;
25962;SDS011;13760;52.588;13.406;2023-05-07T06:40:33;12.73;;;9.40;;
25962;SDS011;13760;52.588;13.406;2023-05-07T06:42:58;14.63;;;8.75;;
25962;SDS011;13760;52.588;13.406;2023-05-07T06:45:24;15.43;;;8.43;;
25962;SDS011;13760;52.588;13.406;2023-05-07T06:47:50;12.00;;;8.18;;
25962;SDS011;13760;52.588;13.406;2023-05-07T06:50:15;11.55;;;8.15;;
25962;SDS011;13760;52.588;13.406;2023-05-07T06:52:42;12.15;;;7.70;;
25962;SDS011;13760;52.588;13.406;2023-05-07T06:55:08;11.05;;;8.00;;
25962;SDS011;13760;52.588;13.406;2023-05-07T06:57:33;11.18;;;7.93;;
25962;SDS011;13760;52.588;13.406;2023-05-07T06:59:59;10.10;;;7.15;;
25962;SDS011;13760;52.588;13.406;2023-05-07T07:02:24;10.40;;;7.15;;
25962;SDS011;13760;52.588;13.406;2023-05-07T07:04:50;12.77;;;7.65;;
25962;SDS011;13760;52.588;13.406;2023-05-07T07:07:16;12.50;;;7.70;;
25962;SDS011;13760;52.588;13.406;2023-05-07T07:09:41;12.00;;;7.47;;
25962;SDS011;13760;52.588;13.406;2023-05-07T07:12:07;11.13;;;7.32;;
25962;SDS011;13760;52.588;13.406;2023-05-07T07:14:32;8.48;;;7.25;;
25962;SDS011;13760;52.588;13.406;2023-05-07T07:16:58;9.85;;;6.40;;
25962;SDS011;13760;52.588;13.406;2023-05-07T07:19:23;10.82;;;6.72;;
25962;SDS011;13760;52.588;13.406;2023-05-07T07:21:49;7.45;;;6.28;;
25962;SDS011;13760;52.588;13.406;2023-05-07T07:24:14;6.55;;;5.57;;
25962;SDS011;13760;52.588;13.406;2023-05-07T07:26:44;9.82;;;6.03;;
25962;SDS011;13760;52.588;13.406;2023-05-07T07:29:10;7.68;;;5.82;;
25962;SDS011;13760;52.588;13.406;2023-05-07T07:31:35;7.45;;;5.18;;
25962;SDS011;13760;52.588;13.406;2023-05-07T07:34:00;10.82;;;5.68;;
25962;SDS011;13760;52.588;13.406;2023-05-07T07:36:26;8.65;;;5.57;;
25962;SDS011;13760;52.588;13.406;2023-05-07T07:38:53;6.90;;;5.47;;
25962;SDS011;13760;52.588;13.406;2023-05-07T07:41:18;7.15;;;5.80;;
25962;SDS011;13760;52.588;13.406;2023-05-07T07:43:44;8.02;;;5.55;;
25962;SDS011;13760;52.588;13.406;2023-05-07T07:46:11;8.88;;;5.40;;
25962;SDS011;13760;52.588;13.406;2023-05-07T07:48:37;5.53;;;5.03;;
25962;SDS011;13760;52.588;13.406;2023-05-07T07:51:02;7.32;;;5.18;;
25962;SDS011;13760;52.588;13.406;2023-05-07T07:53:28;7.60;;;5.20;;
25962;SDS011;13760;52.588;13.406;2023-05-07T07:55:54;5.55;;;4.40;;
25962;SDS011;13760;52.588;13.406;2023-05-07T07:58:19;5.78;;;4.85;;
25962;SDS011;13760;52.588;13.406;2023-05-07T08:00:47;6.68;;;4.15;;
25962;SDS011;13760;52.588;13.406;2023-05-07T08:03:12;7.68;;;4.32;;
25962;SDS011;13760;52.588;13.406;2023-05-07T08:05:39;6.60;;;3.80;;
25962;SDS011;13760;52.588;13.406;2023-05-07T08:08:04;4.10;;;3.20;;
25962;SDS011;13760;52.588;13.406;2023-05-07T08:10:31;5.63;;;3.88;;
25962;SDS011;13760;52.588;13.406;2023-05-07T08:12:59;4.63;;;3.55;;
25962;SDS011;13760;52.588;13.406;2023-05-07T08:15:25;5.68;;;4.05;;
25962;SDS011;13760;52.588;13.406;2023-05-07T08:17:51;6.10;;;3.65;;
25962;SDS011;13760;52.588;13.406;2023-05-07T08:20:16;4.68;;;3.67;;
25962;SDS011;13760;52.588;13.406;2023-05-07T08:22:42;5.00;;;3.50;;
25962;SDS011;13760;52.588;13.406;2023-05-07T08:25:07;3.72;;;3.05;;
25962;SDS011;13760;52.588;13.406;2023-05-07T08:27:33;7.60;;;3.55;;
25962;SDS011;13760;52.588;13.406;2023-05-07T08:29:59;5.07;;;3.60;;
25962;SDS011;13760;52.588;13.406;2023-05-07T08:32:24;4.15;;;3.20;;
25962;SDS011;13760;52.588;13.406;2023-05-07T08:34:50;3.47;;;3.03;;
25962;SDS011;13760;52.588;13.406;2023-05-07T08:37:16;4.57;;;3.45;;
25962;SDS011;13760;52.588;13.406;2023-05-07T08:39:41;3.63;;;3.15;;
25962;SDS011;13760;52.588;13.406;2023-05-07T08:42:07;6.85;;;3.97;;
25962;SDS011;13760;52.588;13.406;2023-05-07T08:44:34;3.70;;;2.90;;
25962;SDS011;13760;52.588;13.406;2023-05-07T08:47:00;5.22;;;3.00;;
25962;SDS011;13760;52.588;13.406;2023-05-07T08:49:27;4.28;;;2.97;;
25962;SDS011;13760;52.588;13.406;2023-05-07T08:51:52;5.53;;;3.08;;
25962;SDS011;13760;52.588;13.406;2023-05-07T08:54:18;3.85;;;2.92;;
25962;SDS011;13760;52.588;13.406;2023-05-07T08:56:45;7.00;;;3.45;;
25962;SDS011;13760;52.588;13.406;2023-05-07T08:59:11;5.18;;;3.00;;
25962;SDS011;13760;52.588;13.406;2023-05-07T09:01:36;4.20;;;3.22;;
25962;SDS011;13760;52.588;13.406;2023-05-07T09:04:03;5.57;;;3.22;;
25962;SDS011;13760;52.588;13.406;2023-05-07T09:06:30;4.57;;;2.95;;
25962;SDS011;13760;52.588;13.406;2023-05-07T09:08:56;5.63;;;2.75;;
25962;SDS011;13760;52.588;13.406;2023-05-07T09:11:23;5.15;;;2.92;;
25962;SDS011;13760;52.588;13.406;2023-05-07T09:13:56;3.40;;;2.80;;
25962;SDS011;13760;52.588;13.406;2023-05-07T09:16:24;4.63;;;2.85;;
25962;SDS011;13760;52.588;13.406;2023-05-07T09:18:51;5.97;;;3.00;;
25962;SDS011;13760;52.588;13.406;2023-05-07T09:21:18;6.32;;;3.00;;
25962;SDS011;13760;52.588;13.406;2023-05-07T09:23:44;5.70;;;2.80;;
25962;SDS011;13760;52.588;13.406;2023-05-07T09:26:09;6.68;;;3.15;;
25962;SDS011;13760;52.588;13.406;2023-05-07T09:28:40;4.05;;;3.00;;
25962;SDS011;13760;52.588;13.406;2023-05-07T09:31:07;4.72;;;3.10;;
25962;SDS011;13760;52.588;13.406;2023-05-07T09:33:33;4.43;;;3.22;;
25962;SDS011;13760;52.588;13.406;2023-05-07T09:36:01;3.47;;;2.95;;
25962;SDS011;13760;52.588;13.406;2023-05-07T09:38:28;8.55;;;3.13;;
25962;SDS011;13760;52.588;13.406;2023-05-07T09:41:15;3.22;;;2.70;;
25962;SDS011;13760;52.588;13.406;2023-05-07T09:43:40;3.97;;;3.10;;
25962;SDS011;13760;52.588;13.406;2023-05-07T09:46:15;3.47;;;2.78;;
25962;SDS011;13760;52.588;13.406;2023-05-07T09:48:42;4.15;;;2.63;;
25962;SDS011;13760;52.588;13.406;2023-05-07T09:54:04;5.78;;;2.58;;
25962;SDS011;13760;52.588;13.406;2023-05-07T09:56:31;5.43;;;2.67;;
25962;SDS011;13760;52.588;13.406;2023-05-07T09:58:57;4.10;;;2.78;;
25962;SDS011;13760;52.588;13.406;2023-05-07T10:01:25;4.55;;;2.65;;
25962;SDS011;13760;52.588;13.406;2023-05-07T10:03:52;4.90;;;2.50;;
25962;SDS011;13760;52.588;13.406;2023-05-07T10:06:19;3.28;;;2.42;;
25962;SDS011;13760;52.588;13.406;2023-05-07T10:08:45;5.80;;;2.90;;
25962;SDS011;13760;52.588;13.406;2023-05-07T10:11:11;3.00;;;2.20;;
25962;SDS011;13760;52.588;13.406;2023-05-07T10:13:37;4.03;;;2.70;;
25962;SDS011;13760;52.588;13.406;2023-05-07T10:16:06;4.38;;;2.70;;
25962;SDS011;13760;52.588;13.406;2023-05-07T10:18:32;3.60;;;2.67;;
25962;SDS011;13760;52.588;13.406;2023-05-07T10:21:01;4.80;;;2.70;;
25962;SDS011;13760;52.588;13.406;2023-05-07T10:23:32;3.92;;;2.05;;
25962;SDS011;13760;52.588;13.406;2023-05-07T10:25:58;5.45;;;2.45;;
25962;SDS011;13760;52.588;13.406;2023-05-07T10:28:29;4.85;;;2.53;;
25962;SDS011;13760;52.588;13.406;2023-05-07T10:31:06;4.57;;;1.93;;
25962;SDS011;13760;52.588;13.406;2023-05-07T10:33:40;3.92;;;2.22;;
25962;SDS011;13760;52.588;13.406;2023-05-07T10:36:07;4.13;;;2.17;;
25962;SDS011;13760;52.588;13.406;2023-05-07T10:38:33;4.57;;;2.40;;
25962;SDS011;13760;52.588;13.406;2023-05-07T10:40:59;4.50;;;2.47;;
25962;SDS011;13760;52.588;13.406;2023-05-07T10:43:24;1.98;;;1.77;;
25962;SDS011;13760;52.588;13.406;2023-05-07T10:48:58;2.95;;;1.90;;
25962;SDS011;13760;52.588;13.406;2023-05-07T10:51:34;4.55;;;2.40;;
25962;SDS011;13760;52.588;13.406;2023-05-07T10:56:34;2.38;;;2.17;;
25962;SDS011;13760;52.588;13.406;2023-05-07T11:01:52;4.85;;;2.35;;
25962;SDS011;13760;52.588;13.406;2023-05-07T11:04:20;2.92;;;2.08;;
25962;SDS011;13760;52.588;13.406;2023-05-07T11:12:17;2.97;;;2.03;;
25962;SDS011;13760;52.588;13.406;2023-05-07T11:15:08;5.00;;;2.15;;
25962;SDS011;13760;52.588;13.406;2023-05-07T11:17:35;3.53;;;2.22;;
25962;SDS011;13760;52.588;13.406;2023-05-07T11:20:17;2.83;;;2.00;;
25962;SDS011;13760;52.588;13.406;2023-05-07T11:22:43;3.30;;;2.22;;
25962;SDS011;13760;52.588;13.406;2023-05-07T11:25:09;4.68;;;2.03;;
25962;SDS011;13760;52.588;13.406;2023-05-07T11:27:35;2.67;;;1.65;;
25962;SDS011;13760;52.588;13.406;2023-05-07T11:30:00;2.00;;;1.60;;
25962;SDS011;13760;52.588;13.406;2023-05-07T11:32:30;3.35;;;1.90;;
25962;SDS011;13760;52.588;13.406;2023-05-07T11:34:59;3.47;;;1.75;;
25962;SDS011;13760;52.588;13.406;2023-05-07T11:37:26;4.20;;;1.90;;
25962;SDS011;13760;52.588;13.406;2023-05-07T11:40:08;2.08;;;1.80;;
25962;SDS011;13760;52.588;13.406;2023-05-07T11:42:36;2.85;;;1.90;;
25962;SDS011;13760;52.588;13.406;2023-05-07T11:45:03;4.70;;;1.88;;
25962;SDS011;13760;52.588;13.406;2023-05-07T11:47:31;3.28;;;1.90;;
25962;SDS011;13760;52.588;13.406;2023-05-07T11:49:56;2.10;;;1.83;;
25962;SDS011;13760;52.588;13.406;2023-05-07T11:52:26;4.53;;;2.27;;
25962;SDS011;13760;52.588;13.406;2023-05-07T11:54:53;3.08;;;2.20;;
25962;SDS011;13760;52.588;13.406;2023-05-07T11:57:25;2.15;;;1.70;;
25962;SDS011;13760;52.588;13.406;2023-05-07T11:59:57;3.55;;;2.13;;
25962;SDS011;13760;52.588;13.406;2023-05-07T12:02:30;2.75;;;1.75;;
25962;SDS011;13760;52.588;13.406;2023-05-07T12:04:56;2.13;;;1.80;;
25962;SDS011;13760;52.588;13.406;2023-05-07T12:07:23;3.08;;;1.95;;
25962;SDS011;13760;52.588;13.406;2023-05-07T12:09:49;6.68;;;2.05;;
25962;SDS011;13760;52.588;13.406;2023-05-07T12:12:15;4.93;;;1.70;;
25962;SDS011;13760;52.588;13.406;2023-05-07T12:14:42;4.50;;;1.80;;
25962;SDS011;13760;52.588;13.406;2023-05-07T12:17:09;2.92;;;1.42;;
25962;SDS011;13760;52.588;13.406;2023-05-07T12:19:36;3.47;;;1.83;;
25962;SDS011;13760;52.588;13.406;2023-05-07T12:22:04;2.65;;;1.80;;
25962;SDS011;13760;52.588;13.406;2023-05-07T12:24:45;2.90;;;1.73;;
25962;SDS011;13760;52.588;13.406;2023-05-07T12:27:12;2.30;;;1.83;;
25962;SDS011;13760;52.588;13.406;2023-05-07T12:29:46;3.72;;;1.55;;
25962;SDS011;13760;52.588;13.406;2023-05-07T12:32:15;3.42;;;1.80;;
25962;SDS011;13760;52.588;13.406;2023-05-07T12:34:41;2.63;;;1.63;;
25962;SDS011;13760;52.588;13.406;2023-05-07T12:37:07;2.40;;;1.95;;
25962;SDS011;13760;52.588;13.406;2023-05-07T12:39:33;2.85;;;1.67;;
25962;SDS011;13760;52.588;13.406;2023-05-07T12:41:59;4.03;;;1.75;;
25962;SDS011;13760;52.588;13.406;2023-05-07T12:44:25;4.32;;;1.80;;
25962;SDS011;13760;52.588;13.406;2023-05-07T12:46:55;3.05;;;1.75;;
25962;SDS011;13760;52.588;13.406;2023-05-07T12:49:20;3.90;;;1.60;;
25962;SDS011;13760;52.588;13.406;2023-05-07T12:51:46;3.75;;;1.60;;
25962;SDS011;13760;52.588;13.406;2023-05-07T12:54:13;2.45;;;1.90;;
25962;SDS011;13760;52.588;13.406;2023-05-07T12:56:39;1.98;;;1.40;;
25962;SDS011;13760;52.588;13.406;2023-05-07T12:59:05;1.83;;;1.35;;
25962;SDS011;13760;52.588;13.406;2023-05-07T13:01:30;2.78;;;1.65;;
25962;SDS011;13760;52.588;13.406;2023-05-07T13:04:03;2.72;;;1.70;;
25962;SDS011;13760;52.588;13.406;2023-05-07T13:06:29;3.17;;;1.50;;
25962;SDS011;13760;52.588;13.406;2023-05-07T13:08:55;2.42;;;1.50;;
25962;SDS011;13760;52.588;13.406;2023-05-07T13:11:21;4.25;;;1.80;;
25962;SDS011;13760;52.588;13.406;2023-05-07T13:13:47;6.00;;;1.77;;
25962;SDS011;13760;52.588;13.406;2023-05-07T13:16:13;4.95;;;1.77;;
25962;SDS011;13760;52.588;13.406;2023-05-07T13:18:39;2.10;;;1.75;;
25962;SDS011;13760;52.588;13.406;2023-05-07T13:21:05;3.40;;;1.63;;
25962;SDS011;13760;52.588;13.406;2023-05-07T13:23:31;2.65;;;1.80;;
25962;SDS011;13760;52.588;13.406;2023-05-07T13:25:56;4.90;;;1.50;;
25962;SDS011;13760;52.588;13.406;2023-05-07T13:28:22;3.60;;;1.55;;
25962;SDS011;13760;52.588;13.406;2023-05-07T13:30:49;2.65;;;1.52;;
25962;SDS011;13760;52.588;13.406;2023-05-07T13:33:16;2.42;;;1.50;;
25962;SDS011;13760;52.588;13.406;2023-05-07T13:35:42;4.30;;;1.90;;
25962;SDS011;13760;52.588;13.406;2023-05-07T13:38:08;2.30;;;1.70;;
25962;SDS011;13760;52.588;13.406;2023-05-07T13:40:33;2.78;;;2.05;;
25962;SDS011;13760;52.588;13.406;2023-05-07T13:42:59;3.78;;;1.90;;
25962;SDS011;13760;52.588;13.406;2023-05-07T13:45:27;4.55;;;1.88;;
25962;SDS011;13760;52.588;13.406;2023-05-07T13:47:54;3.85;;;2.30;;
25962;SDS011;13760;52.588;13.406;2023-05-07T13:50:20;2.10;;;1.50;;
25962;SDS011;13760;52.588;13.406;2023-05-07T13:52:46;3.95;;;1.83;;
25962;SDS011;13760;52.588;13.406;2023-05-07T13:55:16;2.65;;;1.70;;
25962;SDS011;13760;52.588;13.406;2023-05-07T13:57:53;3.42;;;1.90;;
25962;SDS011;13760;52.588;13.406;2023-05-07T14:00:24;3.88;;;1.88;;
25962;SDS011;13760;52.588;13.406;2023-05-07T14:02:50;3.78;;;1.73;;
25962;SDS011;13760;52.588;13.406;2023-05-07T14:05:15;3.55;;;1.70;;
25962;SDS011;13760;52.588;13.406;2023-05-07T14:07:41;3.47;;;1.67;;
25962;SDS011;13760;52.588;13.406;2023-05-07T14:10:06;2.78;;;1.70;;
25962;SDS011;13760;52.588;13.406;2023-05-07T14:12:32;3.60;;;1.80;;
25962;SDS011;13760;52.588;13.406;2023-05-07T14:14:58;3.70;;;1.70;;
25962;SDS011;13760;52.588;13.406;2023-05-07T14:17:24;3.17;;;1.58;;
25962;SDS011;13760;52.588;13.406;2023-05-07T14:19:51;4.50;;;1.60;;
25962;SDS011;13760;52.588;13.406;2023-05-07T14:22:21;2.45;;;1.80;;
25962;SDS011;13760;52.588;13.406;2023-05-07T14:24:48;4.82;;;1.80;;
25962;SDS011;13760;52.588;13.406;2023-05-07T14:27:14;3.00;;;1.98;;
25962;SDS011;13760;52.588;13.406;2023-05-07T14:29:40;4.80;;;1.77;;
25962;SDS011;13760;52.588;13.406;2023-05-07T14:32:07;3.20;;;1.95;;
25962;SDS011;13760;52.588;13.406;2023-05-07T14:34:32;2.83;;;1.80;;
25962;SDS011;13760;52.588;13.406;2023-05-07T14:36:59;4.47;;;1.92;;